sensor_id;sensor_type;location;lat;lon;timestamp;temperature;humidity
9179;DHT22;71287;48.414;11.478;2024-03-08T00:01:06;1.20;99.90
9179;DHT22;71287;48.414;11.478;2024-03-08T00:03:33;1.20;99.90
9179;DHT22;71287;48.414;11.478;2024-03-08T00:06:01;1.20;99.90
9179;DHT22;71287;48.414;11.478;2024-03-08T00:08:28;1.20;99.90
9179;DHT22;71287;48.414;11.478;2024-03-08T00:10:56;1.10;99.90
9179;DHT22;71287;48.414;11.478;2024-03-08T00:13:23;1.10;99.90
9179;DHT22;71287;48.414;11.478;2024-03-08T00:15:50;1.10;99.90
9179;DHT22;71287;48.414;11.478;2024-03-08T00:18:17;1.10;99.90
9179;DHT22;71287;48.414;11.478;2024-03-08T00:20:44;1.10;99.90
9179;DHT22;71287;48.414;11.478;2024-03-08T00:23:12;1.10;99.90
9179;DHT22;71287;48.414;11.478;2024-03-08T00:25:41;1.10;99.90
9179;DHT22;71287;48.414;11.478;2024-03-08T00:28:07;1.10;99.90
9179;DHT22;71287;48.414;11.478;2024-03-08T00:30:38;1.00;99.90
9179;DHT22;71287;48.414;11.478;2024-03-08T00:33:05;1.10;99.90
9179;DHT22;71287;48.414;11.478;2024-03-08T00:35:32;1.10;99.90
9179;DHT22;71287;48.414;11.478;2024-03-08T00:37:59;1.10;99.90
9179;DHT22;71287;48.414;11.478;2024-03-08T00:40:27;1.10;99.90
9179;DHT22;71287;48.414;11.478;2024-03-08T00:42:54;1.10;99.90
9179;DHT22;71287;48.414;11.478;2024-03-08T00:45:21;1.10;99.90
9179;DHT22;71287;48.414;11.478;2024-03-08T00:47:48;1.10;99.90
9179;DHT22;71287;48.414;11.478;2024-03-08T00:50:15;1.10;99.90
9179;DHT22;71287;48.414;11.478;2024-03-08T00:52:43;1.10;99.90
9179;DHT22;71287;48.414;11.478;2024-03-08T00:55:10;1.20;99.90
9179;DHT22;71287;48.414;11.478;2024-03-08T00:57:39;1.20;99.90
9179;DHT22;71287;48.414;11.478;2024-03-08T01:00:06;1.20;99.90
9179;DHT22;71287;48.414;11.478;2024-03-08T01:02:37;1.20;99.90
9179;DHT22;71287;48.414;11.478;2024-03-08T01:05:04;1.20;99.90
9179;DHT22;71287;48.414;11.478;2024-03-08T01:07:33;1.10;99.90
9179;DHT22;71287;48.414;11.478;2024-03-08T01:09:59;1.10;99.90
9179;DHT22;71287;48.414;11.478;2024-03-08T01:12:27;1.10;99.90
9179;DHT22;71287;48.414;11.478;2024-03-08T01:14:55;1.10;99.90
9179;DHT22;71287;48.414;11.478;2024-03-08T01:17:23;1.10;99.90
9179;DHT22;71287;48.414;11.478;2024-03-08T01:19:50;1.10;99.90
9179;DHT22;71287;48.414;11.478;2024-03-08T01:22:16;1.10;99.90
9179;DHT22;71287;48.414;11.478;2024-03-08T01:24:43;1.10;99.90
9179;DHT22;71287;48.414;11.478;2024-03-08T01:27:10;1.10;99.90
9179;DHT22;71287;48.414;11.478;2024-03-08T01:29:38;1.10;99.90
9179;DHT22;71287;48.414;11.478;2024-03-08T01:32:06;1.10;99.90
9179;DHT22;71287;48.414;11.478;2024-03-08T01:34:33;1.10;99.90
9179;DHT22;71287;48.414;11.478;2024-03-08T01:37:00;1.10;99.90
9179;DHT22;71287;48.414;11.478;2024-03-08T01:39:27;1.00;99.90
9179;DHT22;71287;48.414;11.478;2024-03-08T01:41:54;1.00;99.90
9179;DHT22;71287;48.414;11.478;2024-03-08T01:44:20;1.00;99.90
9179;DHT22;71287;48.414;11.478;2024-03-08T01:46:48;1.00;99.90
9179;DHT22;71287;48.414;11.478;2024-03-08T01:49:19;1.00;99.90
9179;DHT22;71287;48.414;11.478;2024-03-08T01:51:48;1.00;99.90
9179;DHT22;71287;48.414;11.478;2024-03-08T01:54:16;1.00;99.90
9179;DHT22;71287;48.414;11.478;2024-03-08T01:56:45;1.00;99.90
9179;DHT22;71287;48.414;11.478;2024-03-08T01:59:12;1.00;99.90
9179;DHT22;71287;48.414;11.478;2024-03-08T02:01:40;0.90;99.90
9179;DHT22;71287;48.414;11.478;2024-03-08T02:04:07;1.00;99.90
9179;DHT22;71287;48.414;11.478;2024-03-08T02:06:36;1.00;99.90
9179;DHT22;71287;48.414;11.478;2024-03-08T02:09:03;0.90;99.90
9179;DHT22;71287;48.414;11.478;2024-03-08T02:11:31;0.90;99.90
9179;DHT22;71287;48.414;11.478;2024-03-08T02:13:58;0.90;99.90
9179;DHT22;71287;48.414;11.478;2024-03-08T02:16:25;0.90;99.90
9179;DHT22;71287;48.414;11.478;2024-03-08T02:18:51;0.90;99.90
9179;DHT22;71287;48.414;11.478;2024-03-08T02:21:20;0.90;99.90
9179;DHT22;71287;48.414;11.478;2024-03-08T02:23:47;0.90;99.90
9179;DHT22;71287;48.414;11.478;2024-03-08T02:26:14;0.90;99.90
9179;DHT22;71287;48.414;11.478;2024-03-08T02:28:41;0.90;99.90
9179;DHT22;71287;48.414;11.478;2024-03-08T02:31:09;0.90;99.90
9179;DHT22;71287;48.414;11.478;2024-03-08T02:33:36;0.90;99.90
9179;DHT22;71287;48.414;11.478;2024-03-08T02:36:03;0.90;99.90
9179;DHT22;71287;48.414;11.478;2024-03-08T02:38:33;0.90;99.90
9179;DHT22;71287;48.414;11.478;2024-03-08T02:40:59;0.80;99.90
9179;DHT22;71287;48.414;11.478;2024-03-08T02:43:26;0.80;99.90
9179;DHT22;71287;48.414;11.478;2024-03-08T02:45:53;0.80;99.90
9179;DHT22;71287;48.414;11.478;2024-03-08T02:48:20;0.80;99.90
9179;DHT22;71287;48.414;11.478;2024-03-08T02:50:48;0.70;99.90
9179;DHT22;71287;48.414;11.478;2024-03-08T02:53:17;0.70;99.90
9179;DHT22;71287;48.414;11.478;2024-03-08T02:55:46;0.70;99.90
9179;DHT22;71287;48.414;11.478;2024-03-08T02:58:13;0.70;99.90
9179;DHT22;71287;48.414;11.478;2024-03-08T03:00:40;0.70;99.90
9179;DHT22;71287;48.414;11.478;2024-03-08T03:03:07;0.70;99.90
9179;DHT22;71287;48.414;11.478;2024-03-08T03:05:34;0.70;99.90
9179;DHT22;71287;48.414;11.478;2024-03-08T03:08:01;0.60;99.90
9179;DHT22;71287;48.414;11.478;2024-03-08T03:10:29;0.60;99.90
9179;DHT22;71287;48.414;11.478;2024-03-08T03:12:57;0.60;99.90
9179;DHT22;71287;48.414;11.478;2024-03-08T03:15:24;0.60;99.90
9179;DHT22;71287;48.414;11.478;2024-03-08T03:17:51;0.60;99.90
9179;DHT22;71287;48.414;11.478;2024-03-08T03:20:18;0.50;99.90
9179;DHT22;71287;48.414;11.478;2024-03-08T03:22:52;0.50;99.90
9179;DHT22;71287;48.414;11.478;2024-03-08T03:25:19;0.50;99.90
9179;DHT22;71287;48.414;11.478;2024-03-08T03:27:51;0.50;99.90
9179;DHT22;71287;48.414;11.478;2024-03-08T03:30:19;0.40;99.90
9179;DHT22;71287;48.414;11.478;2024-03-08T03:32:47;0.40;99.90
9179;DHT22;71287;48.414;11.478;2024-03-08T03:35:15;0.40;99.90
9179;DHT22;71287;48.414;11.478;2024-03-08T03:37:42;0.40;99.90
9179;DHT22;71287;48.414;11.478;2024-03-08T03:40:12;0.30;99.90
9179;DHT22;71287;48.414;11.478;2024-03-08T03:42:39;0.30;99.90
9179;DHT22;71287;48.414;11.478;2024-03-08T03:45:06;0.30;99.90
9179;DHT22;71287;48.414;11.478;2024-03-08T03:47:36;0.20;99.90
9179;DHT22;71287;48.414;11.478;2024-03-08T03:50:05;0.20;99.90
9179;DHT22;71287;48.414;11.478;2024-03-08T03:52:32;0.20;99.90
9179;DHT22;71287;48.414;11.478;2024-03-08T03:54:58;0.30;99.90
9179;DHT22;71287;48.414;11.478;2024-03-08T03:57:25;0.30;99.90
9179;DHT22;71287;48.414;11.478;2024-03-08T03:59:52;0.40;99.90
9179;DHT22;71287;48.414;11.478;2024-03-08T04:02:19;0.50;99.90
9179;DHT22;71287;48.414;11.478;2024-03-08T04:04:47;0.50;99.90
9179;DHT22;71287;48.414;11.478;2024-03-08T04:07:14;0.60;99.90
9179;DHT22;71287;48.414;11.478;2024-03-08T04:09:42;0.70;99.90
9179;DHT22;71287;48.414;11.478;2024-03-08T04:12:09;0.80;99.90
9179;DHT22;71287;48.414;11.478;2024-03-08T04:14:36;0.90;99.90
9179;DHT22;71287;48.414;11.478;2024-03-08T04:17:03;1.00;99.90
9179;DHT22;71287;48.414;11.478;2024-03-08T04:19:30;1.00;99.90
9179;DHT22;71287;48.414;11.478;2024-03-08T04:21:58;1.10;99.90
9179;DHT22;71287;48.414;11.478;2024-03-08T04:24:26;1.10;99.90
9179;DHT22;71287;48.414;11.478;2024-03-08T04:26:53;1.10;99.90
9179;DHT22;71287;48.414;11.478;2024-03-08T04:29:20;1.20;99.90
9179;DHT22;71287;48.414;11.478;2024-03-08T04:31:47;1.20;99.90
9179;DHT22;71287;48.414;11.478;2024-03-08T04:34:14;1.20;99.90
9179;DHT22;71287;48.414;11.478;2024-03-08T04:36:40;1.30;99.90
9179;DHT22;71287;48.414;11.478;2024-03-08T04:39:09;1.30;99.90
9179;DHT22;71287;48.414;11.478;2024-03-08T04:41:38;1.30;99.90
9179;DHT22;71287;48.414;11.478;2024-03-08T04:44:06;1.30;99.90
9179;DHT22;71287;48.414;11.478;2024-03-08T04:46:33;1.30;99.90
9179;DHT22;71287;48.414;11.478;2024-03-08T04:49:00;1.30;99.90
9179;DHT22;71287;48.414;11.478;2024-03-08T04:51:27;1.40;99.90
9179;DHT22;71287;48.414;11.478;2024-03-08T04:53:54;1.40;99.90
9179;DHT22;71287;48.414;11.478;2024-03-08T04:56:23;1.40;99.90
9179;DHT22;71287;48.414;11.478;2024-03-08T04:58:51;1.40;99.90
9179;DHT22;71287;48.414;11.478;2024-03-08T05:01:18;1.40;99.90
9179;DHT22;71287;48.414;11.478;2024-03-08T05:03:45;1.40;99.90
9179;DHT22;71287;48.414;11.478;2024-03-08T05:06:15;1.40;99.90
9179;DHT22;71287;48.414;11.478;2024-03-08T05:08:42;1.40;99.90
9179;DHT22;71287;48.414;11.478;2024-03-08T05:11:09;1.40;99.90
9179;DHT22;71287;48.414;11.478;2024-03-08T05:13:37;1.40;99.90
9179;DHT22;71287;48.414;11.478;2024-03-08T05:16:04;1.50;99.90
9179;DHT22;71287;48.414;11.478;2024-03-08T05:18:33;1.40;99.90
9179;DHT22;71287;48.414;11.478;2024-03-08T05:21:01;1.50;99.90
9179;DHT22;71287;48.414;11.478;2024-03-08T05:23:29;1.50;99.90
9179;DHT22;71287;48.414;11.478;2024-03-08T05:25:56;1.50;99.90
9179;DHT22;71287;48.414;11.478;2024-03-08T05:28:23;1.50;99.90
9179;DHT22;71287;48.414;11.478;2024-03-08T05:30:51;1.50;99.90
9179;DHT22;71287;48.414;11.478;2024-03-08T05:33:17;1.50;99.90
9179;DHT22;71287;48.414;11.478;2024-03-08T05:35:44;1.50;99.90
9179;DHT22;71287;48.414;11.478;2024-03-08T05:38:11;1.50;99.90
9179;DHT22;71287;48.414;11.478;2024-03-08T05:40:38;1.50;99.90
9179;DHT22;71287;48.414;11.478;2024-03-08T05:43:05;1.50;99.90
9179;DHT22;71287;48.414;11.478;2024-03-08T05:45:32;1.50;99.90
9179;DHT22;71287;48.414;11.478;2024-03-08T05:48:01;1.50;99.90
9179;DHT22;71287;48.414;11.478;2024-03-08T05:50:27;1.60;99.90
9179;DHT22;71287;48.414;11.478;2024-03-08T05:52:54;1.50;99.90
9179;DHT22;71287;48.414;11.478;2024-03-08T05:55:21;1.60;99.90
9179;DHT22;71287;48.414;11.478;2024-03-08T05:57:50;1.60;99.90
9179;DHT22;71287;48.414;11.478;2024-03-08T06:00:19;1.60;99.90
9179;DHT22;71287;48.414;11.478;2024-03-08T06:02:47;1.60;99.90
9179;DHT22;71287;48.414;11.478;2024-03-08T06:05:15;1.60;99.90
9179;DHT22;71287;48.414;11.478;2024-03-08T06:07:42;1.60;99.90
9179;DHT22;71287;48.414;11.478;2024-03-08T06:10:09;1.60;99.90
9179;DHT22;71287;48.414;11.478;2024-03-08T06:12:37;1.60;99.90
9179;DHT22;71287;48.414;11.478;2024-03-08T06:15:07;1.60;99.90
9179;DHT22;71287;48.414;11.478;2024-03-08T06:17:35;1.60;99.90
9179;DHT22;71287;48.414;11.478;2024-03-08T06:20:02;1.70;99.90
9179;DHT22;71287;48.414;11.478;2024-03-08T06:22:37;1.70;99.90
9179;DHT22;71287;48.414;11.478;2024-03-08T06:25:05;1.70;99.90
9179;DHT22;71287;48.414;11.478;2024-03-08T06:27:32;1.70;99.90
9179;DHT22;71287;48.414;11.478;2024-03-08T06:29:59;1.80;99.90
9179;DHT22;71287;48.414;11.478;2024-03-08T06:32:26;1.80;99.90
9179;DHT22;71287;48.414;11.478;2024-03-08T06:34:52;1.90;99.90
9179;DHT22;71287;48.414;11.478;2024-03-08T06:37:19;1.90;99.90
9179;DHT22;71287;48.414;11.478;2024-03-08T06:39:48;1.90;99.90
9179;DHT22;71287;48.414;11.478;2024-03-08T06:42:16;2.00;99.90
9179;DHT22;71287;48.414;11.478;2024-03-08T06:44:43;2.00;99.90
9179;DHT22;71287;48.414;11.478;2024-03-08T06:47:14;2.10;99.90
9179;DHT22;71287;48.414;11.478;2024-03-08T06:49:41;2.10;99.90
9179;DHT22;71287;48.414;11.478;2024-03-08T06:52:09;2.10;99.90
9179;DHT22;71287;48.414;11.478;2024-03-08T06:54:36;2.20;99.90
9179;DHT22;71287;48.414;11.478;2024-03-08T06:57:04;2.20;99.90
9179;DHT22;71287;48.414;11.478;2024-03-08T06:59:31;2.10;99.90
9179;DHT22;71287;48.414;11.478;2024-03-08T07:01:58;2.10;99.90
9179;DHT22;71287;48.414;11.478;2024-03-08T07:04:25;2.10;99.90
9179;DHT22;71287;48.414;11.478;2024-03-08T07:06:55;2.10;99.90
9179;DHT22;71287;48.414;11.478;2024-03-08T07:09:22;2.20;99.90
9179;DHT22;71287;48.414;11.478;2024-03-08T07:11:49;2.30;99.90
9179;DHT22;71287;48.414;11.478;2024-03-08T07:14:21;2.30;99.90
9179;DHT22;71287;48.414;11.478;2024-03-08T07:16:48;2.40;99.90
9179;DHT22;71287;48.414;11.478;2024-03-08T07:19:15;2.40;99.90
9179;DHT22;71287;48.414;11.478;2024-03-08T07:21:42;2.40;99.90
9179;DHT22;71287;48.414;11.478;2024-03-08T07:24:09;2.50;99.90
9179;DHT22;71287;48.414;11.478;2024-03-08T07:26:53;2.50;99.90
9179;DHT22;71287;48.414;11.478;2024-03-08T07:29:22;2.70;99.90
9179;DHT22;71287;48.414;11.478;2024-03-08T07:31:49;2.80;99.90
9179;DHT22;71287;48.414;11.478;2024-03-08T07:34:26;2.80;99.90
9179;DHT22;71287;48.414;11.478;2024-03-08T07:36:53;2.90;99.90
9179;DHT22;71287;48.414;11.478;2024-03-08T07:39:21;2.80;99.90
9179;DHT22;71287;48.414;11.478;2024-03-08T07:41:49;2.90;99.90
9179;DHT22;71287;48.414;11.478;2024-03-08T07:44:18;3.10;99.90
9179;DHT22;71287;48.414;11.478;2024-03-08T07:46:46;3.70;99.90
9179;DHT22;71287;48.414;11.478;2024-03-08T07:49:12;4.20;99.90
9179;DHT22;71287;48.414;11.478;2024-03-08T07:51:40;4.10;99.90
9179;DHT22;71287;48.414;11.478;2024-03-08T07:54:07;4.10;99.90
9179;DHT22;71287;48.414;11.478;2024-03-08T07:56:34;4.10;99.90
9179;DHT22;71287;48.414;11.478;2024-03-08T07:59:01;4.00;99.90
9179;DHT22;71287;48.414;11.478;2024-03-08T08:01:29;4.10;99.90
9179;DHT22;71287;48.414;11.478;2024-03-08T08:03:57;5.00;99.90
9179;DHT22;71287;48.414;11.478;2024-03-08T08:06:24;5.10;99.90
9179;DHT22;71287;48.414;11.478;2024-03-08T08:08:51;5.00;99.90
9179;DHT22;71287;48.414;11.478;2024-03-08T08:11:17;5.20;99.90
9179;DHT22;71287;48.414;11.478;2024-03-08T08:13:45;4.90;99.90
9179;DHT22;71287;48.414;11.478;2024-03-08T08:16:12;4.80;99.90
9179;DHT22;71287;48.414;11.478;2024-03-08T08:18:39;4.60;99.90
9179;DHT22;71287;48.414;11.478;2024-03-08T08:21:08;4.50;99.90
9179;DHT22;71287;48.414;11.478;2024-03-08T08:23:36;4.60;99.90
9179;DHT22;71287;48.414;11.478;2024-03-08T08:26:03;4.60;99.90
9179;DHT22;71287;48.414;11.478;2024-03-08T08:28:30;4.60;99.90
9179;DHT22;71287;48.414;11.478;2024-03-08T08:30:57;4.70;99.90
9179;DHT22;71287;48.414;11.478;2024-03-08T08:33:25;4.80;99.90
9179;DHT22;71287;48.414;11.478;2024-03-08T08:35:52;4.80;99.90
9179;DHT22;71287;48.414;11.478;2024-03-08T08:38:21;4.70;99.90
9179;DHT22;71287;48.414;11.478;2024-03-08T08:40:48;4.60;99.90
9179;DHT22;71287;48.414;11.478;2024-03-08T08:43:15;4.60;99.90
9179;DHT22;71287;48.414;11.478;2024-03-08T08:45:43;4.60;99.90
9179;DHT22;71287;48.414;11.478;2024-03-08T08:48:10;4.60;99.90
9179;DHT22;71287;48.414;11.478;2024-03-08T08:50:36;4.80;99.90
9179;DHT22;71287;48.414;11.478;2024-03-08T08:53:04;5.10;99.90
9179;DHT22;71287;48.414;11.478;2024-03-08T08:55:33;5.30;99.90
9179;DHT22;71287;48.414;11.478;2024-03-08T08:58:01;5.50;99.90
9179;DHT22;71287;48.414;11.478;2024-03-08T09:00:28;5.50;99.90
9179;DHT22;71287;48.414;11.478;2024-03-08T09:02:56;5.80;99.90
9179;DHT22;71287;48.414;11.478;2024-03-08T09:05:24;6.30;99.90
9179;DHT22;71287;48.414;11.478;2024-03-08T09:07:51;6.50;99.90
9179;DHT22;71287;48.414;11.478;2024-03-08T09:10:19;6.60;99.90
9179;DHT22;71287;48.414;11.478;2024-03-08T09:12:48;6.80;99.90
9179;DHT22;71287;48.414;11.478;2024-03-08T09:15:14;6.90;99.90
9179;DHT22;71287;48.414;11.478;2024-03-08T09:17:43;7.00;99.90
9179;DHT22;71287;48.414;11.478;2024-03-08T09:20:10;7.20;99.90
9179;DHT22;71287;48.414;11.478;2024-03-08T09:22:40;7.40;99.90
9179;DHT22;71287;48.414;11.478;2024-03-08T09:25:07;7.50;99.90
9179;DHT22;71287;48.414;11.478;2024-03-08T09:27:35;7.70;99.90
9179;DHT22;71287;48.414;11.478;2024-03-08T09:30:04;7.70;99.90
9179;DHT22;71287;48.414;11.478;2024-03-08T09:32:32;7.40;99.90
9179;DHT22;71287;48.414;11.478;2024-03-08T09:34:59;6.90;99.90
9179;DHT22;71287;48.414;11.478;2024-03-08T09:37:26;6.60;99.90
9179;DHT22;71287;48.414;11.478;2024-03-08T09:39:53;6.30;99.90
9179;DHT22;71287;48.414;11.478;2024-03-08T09:42:19;6.30;99.90
9179;DHT22;71287;48.414;11.478;2024-03-08T09:44:46;6.40;99.90
9179;DHT22;71287;48.414;11.478;2024-03-08T09:47:15;6.50;99.90
9179;DHT22;71287;48.414;11.478;2024-03-08T09:49:42;6.60;99.90
9179;DHT22;71287;48.414;11.478;2024-03-08T09:52:10;6.60;99.90
9179;DHT22;71287;48.414;11.478;2024-03-08T09:54:38;6.50;99.90
9179;DHT22;71287;48.414;11.478;2024-03-08T09:57:05;6.50;99.90
9179;DHT22;71287;48.414;11.478;2024-03-08T09:59:33;6.60;99.90
9179;DHT22;71287;48.414;11.478;2024-03-08T10:02:16;6.80;99.90
9179;DHT22;71287;48.414;11.478;2024-03-08T10:04:43;7.00;99.90
9179;DHT22;71287;48.414;11.478;2024-03-08T10:07:12;7.20;99.90
9179;DHT22;71287;48.414;11.478;2024-03-08T10:09:39;7.20;99.90
9179;DHT22;71287;48.414;11.478;2024-03-08T10:12:07;7.20;99.90
9179;DHT22;71287;48.414;11.478;2024-03-08T10:14:39;7.20;99.90
9179;DHT22;71287;48.414;11.478;2024-03-08T10:17:07;7.20;99.90
9179;DHT22;71287;48.414;11.478;2024-03-08T10:19:35;7.20;99.90
9179;DHT22;71287;48.414;11.478;2024-03-08T10:22:02;7.20;99.90
9179;DHT22;71287;48.414;11.478;2024-03-08T10:24:30;7.30;99.90
9179;DHT22;71287;48.414;11.478;2024-03-08T10:26:59;7.30;99.90
9179;DHT22;71287;48.414;11.478;2024-03-08T10:29:27;7.40;99.90
9179;DHT22;71287;48.414;11.478;2024-03-08T10:31:54;7.40;99.90
9179;DHT22;71287;48.414;11.478;2024-03-08T10:34:22;7.50;99.90
9179;DHT22;71287;48.414;11.478;2024-03-08T10:36:51;7.60;99.90
9179;DHT22;71287;48.414;11.478;2024-03-08T10:39:22;7.70;99.90
9179;DHT22;71287;48.414;11.478;2024-03-08T10:41:54;7.80;99.90
9179;DHT22;71287;48.414;11.478;2024-03-08T10:44:37;7.80;99.90
9179;DHT22;71287;48.414;11.478;2024-03-08T10:47:16;7.90;99.90
9179;DHT22;71287;48.414;11.478;2024-03-08T10:49:51;7.80;99.60
9179;DHT22;71287;48.414;11.478;2024-03-08T10:52:20;7.70;99.20
9179;DHT22;71287;48.414;11.478;2024-03-08T10:54:47;7.80;99.60
9179;DHT22;71287;48.414;11.478;2024-03-08T10:57:17;7.80;99.60
9179;DHT22;71287;48.414;11.478;2024-03-08T10:59:46;7.90;99.80
9179;DHT22;71287;48.414;11.478;2024-03-08T11:02:16;8.00;99.20
9179;DHT22;71287;48.414;11.478;2024-03-08T11:04:46;8.00;99.30
9179;DHT22;71287;48.414;11.478;2024-03-08T11:07:13;8.10;98.90
9179;DHT22;71287;48.414;11.478;2024-03-08T11:09:44;8.10;99.10
9179;DHT22;71287;48.414;11.478;2024-03-08T11:12:25;8.20;99.40
9179;DHT22;71287;48.414;11.478;2024-03-08T11:14:55;8.40;99.10
9179;DHT22;71287;48.414;11.478;2024-03-08T11:17:27;8.40;98.50
9179;DHT22;71287;48.414;11.478;2024-03-08T11:20:09;8.50;99.00
9179;DHT22;71287;48.414;11.478;2024-03-08T11:22:41;8.60;98.20
9179;DHT22;71287;48.414;11.478;2024-03-08T11:25:34;8.60;98.00
9179;DHT22;71287;48.414;11.478;2024-03-08T11:28:13;8.50;97.80
9179;DHT22;71287;48.414;11.478;2024-03-08T11:30:43;8.50;97.50
9179;DHT22;71287;48.414;11.478;2024-03-08T11:33:11;8.50;97.70
9179;DHT22;71287;48.414;11.478;2024-03-08T11:35:38;8.50;97.30
9179;DHT22;71287;48.414;11.478;2024-03-08T11:38:07;8.60;97.40
9179;DHT22;71287;48.414;11.478;2024-03-08T11:40:35;8.60;96.80
9179;DHT22;71287;48.414;11.478;2024-03-08T11:43:03;8.60;97.40
9179;DHT22;71287;48.414;11.478;2024-03-08T11:45:33;8.70;97.40
9179;DHT22;71287;48.414;11.478;2024-03-08T11:48:01;8.80;96.60
9179;DHT22;71287;48.414;11.478;2024-03-08T11:50:29;8.70;96.30
9179;DHT22;71287;48.414;11.478;2024-03-08T11:53:00;8.80;96.00
9179;DHT22;71287;48.414;11.478;2024-03-08T11:55:27;8.90;96.10
9179;DHT22;71287;48.414;11.478;2024-03-08T11:58:01;9.00;96.10
9179;DHT22;71287;48.414;11.478;2024-03-08T12:00:28;9.10;96.30
9179;DHT22;71287;48.414;11.478;2024-03-08T12:03:04;9.10;95.60
9179;DHT22;71287;48.414;11.478;2024-03-08T12:05:31;9.10;95.40
9179;DHT22;71287;48.414;11.478;2024-03-08T12:07:59;9.10;95.20
9179;DHT22;71287;48.414;11.478;2024-03-08T12:10:26;9.00;95.40
9179;DHT22;71287;48.414;11.478;2024-03-08T12:12:54;9.10;95.40
9179;DHT22;71287;48.414;11.478;2024-03-08T12:15:23;9.10;95.30
9179;DHT22;71287;48.414;11.478;2024-03-08T12:17:51;9.10;95.50
9179;DHT22;71287;48.414;11.478;2024-03-08T12:20:19;9.20;96.20
9179;DHT22;71287;48.414;11.478;2024-03-08T12:22:48;9.30;95.80
9179;DHT22;71287;48.414;11.478;2024-03-08T12:25:15;9.30;95.60
9179;DHT22;71287;48.414;11.478;2024-03-08T12:27:43;9.30;94.80
9179;DHT22;71287;48.414;11.478;2024-03-08T12:30:18;9.40;94.70
9179;DHT22;71287;48.414;11.478;2024-03-08T12:32:50;9.40;94.60
9179;DHT22;71287;48.414;11.478;2024-03-08T12:35:19;9.40;94.20
9179;DHT22;71287;48.414;11.478;2024-03-08T12:37:48;9.40;94.00
9179;DHT22;71287;48.414;11.478;2024-03-08T12:40:17;9.30;94.20
9179;DHT22;71287;48.414;11.478;2024-03-08T12:42:44;9.40;94.20
9179;DHT22;71287;48.414;11.478;2024-03-08T12:45:13;9.40;93.10
9179;DHT22;71287;48.414;11.478;2024-03-08T12:47:40;9.40;93.60
9179;DHT22;71287;48.414;11.478;2024-03-08T12:50:10;9.40;93.70
9179;DHT22;71287;48.414;11.478;2024-03-08T12:52:37;9.50;93.80
9179;DHT22;71287;48.414;11.478;2024-03-08T12:55:04;9.60;94.00
9179;DHT22;71287;48.414;11.478;2024-03-08T12:57:33;9.60;93.40
9179;DHT22;71287;48.414;11.478;2024-03-08T13:00:01;9.60;93.50
9179;DHT22;71287;48.414;11.478;2024-03-08T13:02:28;9.70;93.20
9179;DHT22;71287;48.414;11.478;2024-03-08T13:04:56;9.70;93.40
9179;DHT22;71287;48.414;11.478;2024-03-08T13:07:25;9.70;93.40
9179;DHT22;71287;48.414;11.478;2024-03-08T13:09:52;9.70;92.70
9179;DHT22;71287;48.414;11.478;2024-03-08T13:12:19;9.80;93.10
9179;DHT22;71287;48.414;11.478;2024-03-08T13:14:46;9.80;93.00
9179;DHT22;71287;48.414;11.478;2024-03-08T13:17:13;9.90;93.80
9179;DHT22;71287;48.414;11.478;2024-03-08T13:19:40;9.90;93.40
9179;DHT22;71287;48.414;11.478;2024-03-08T13:22:07;9.80;92.20
9179;DHT22;71287;48.414;11.478;2024-03-08T13:24:39;9.70;92.40
9179;DHT22;71287;48.414;11.478;2024-03-08T13:27:07;9.70;92.20
9179;DHT22;71287;48.414;11.478;2024-03-08T13:29:45;9.70;92.30
9179;DHT22;71287;48.414;11.478;2024-03-08T13:32:13;9.70;92.70
9179;DHT22;71287;48.414;11.478;2024-03-08T13:34:41;9.70;92.60
9179;DHT22;71287;48.414;11.478;2024-03-08T13:37:08;9.70;92.00
9179;DHT22;71287;48.414;11.478;2024-03-08T13:39:35;9.80;92.40
9179;DHT22;71287;48.414;11.478;2024-03-08T13:42:10;9.80;91.80
9179;DHT22;71287;48.414;11.478;2024-03-08T13:44:39;9.80;92.00
9179;DHT22;71287;48.414;11.478;2024-03-08T13:47:06;9.80;91.20
9179;DHT22;71287;48.414;11.478;2024-03-08T13:49:33;9.80;91.10
9179;DHT22;71287;48.414;11.478;2024-03-08T13:51:59;9.80;91.10
9179;DHT22;71287;48.414;11.478;2024-03-08T13:54:26;9.80;91.60
9179;DHT22;71287;48.414;11.478;2024-03-08T13:56:56;9.80;91.00
9179;DHT22;71287;48.414;11.478;2024-03-08T13:59:24;9.80;90.50
9179;DHT22;71287;48.414;11.478;2024-03-08T14:01:55;9.70;90.30
9179;DHT22;71287;48.414;11.478;2024-03-08T14:04:22;9.70;90.30
9179;DHT22;71287;48.414;11.478;2024-03-08T14:06:50;9.70;90.30
9179;DHT22;71287;48.414;11.478;2024-03-08T14:09:22;9.60;89.50
9179;DHT22;71287;48.414;11.478;2024-03-08T14:11:50;9.60;89.20
9179;DHT22;71287;48.414;11.478;2024-03-08T14:14:19;9.60;89.60
9179;DHT22;71287;48.414;11.478;2024-03-08T14:16:47;9.60;89.00
9179;DHT22;71287;48.414;11.478;2024-03-08T14:19:14;9.50;88.50
9179;DHT22;71287;48.414;11.478;2024-03-08T14:21:41;9.50;89.70
9179;DHT22;71287;48.414;11.478;2024-03-08T14:24:08;9.40;89.80
9179;DHT22;71287;48.414;11.478;2024-03-08T14:26:35;9.40;89.40
9179;DHT22;71287;48.414;11.478;2024-03-08T14:29:04;9.40;90.70
9179;DHT22;71287;48.414;11.478;2024-03-08T14:31:31;9.40;90.20
9179;DHT22;71287;48.414;11.478;2024-03-08T14:33:59;9.40;90.50
9179;DHT22;71287;48.414;11.478;2024-03-08T14:36:25;9.40;90.90
9179;DHT22;71287;48.414;11.478;2024-03-08T14:38:52;9.40;90.60
9179;DHT22;71287;48.414;11.478;2024-03-08T14:41:19;9.40;89.80
9179;DHT22;71287;48.414;11.478;2024-03-08T14:43:47;9.40;89.60
9179;DHT22;71287;48.414;11.478;2024-03-08T14:46:14;9.30;89.10
9179;DHT22;71287;48.414;11.478;2024-03-08T14:48:42;9.30;90.00
9179;DHT22;71287;48.414;11.478;2024-03-08T14:51:11;9.30;90.10
9179;DHT22;71287;48.414;11.478;2024-03-08T14:53:40;9.20;88.90
9179;DHT22;71287;48.414;11.478;2024-03-08T14:56:08;9.20;89.30
9179;DHT22;71287;48.414;11.478;2024-03-08T14:58:35;9.20;88.80
9179;DHT22;71287;48.414;11.478;2024-03-08T15:01:03;9.20;88.80
9179;DHT22;71287;48.414;11.478;2024-03-08T15:03:35;9.20;90.30
9179;DHT22;71287;48.414;11.478;2024-03-08T15:06:02;9.10;89.50
9179;DHT22;71287;48.414;11.478;2024-03-08T15:08:35;9.10;88.50
9179;DHT22;71287;48.414;11.478;2024-03-08T15:11:01;9.00;88.30
9179;DHT22;71287;48.414;11.478;2024-03-08T15:13:28;9.00;88.40
9179;DHT22;71287;48.414;11.478;2024-03-08T15:16:05;9.00;87.90
9179;DHT22;71287;48.414;11.478;2024-03-08T15:18:33;8.90;88.20
9179;DHT22;71287;48.414;11.478;2024-03-08T15:21:03;8.90;88.10
9179;DHT22;71287;48.414;11.478;2024-03-08T15:23:34;8.80;88.10
9179;DHT22;71287;48.414;11.478;2024-03-08T15:26:01;8.90;88.40
9179;DHT22;71287;48.414;11.478;2024-03-08T15:28:29;8.80;89.80
9179;DHT22;71287;48.414;11.478;2024-03-08T15:31:03;8.80;89.70
9179;DHT22;71287;48.414;11.478;2024-03-08T15:33:32;8.80;90.00
9179;DHT22;71287;48.414;11.478;2024-03-08T15:35:59;8.80;89.90
9179;DHT22;71287;48.414;11.478;2024-03-08T15:38:33;8.80;90.20
9179;DHT22;71287;48.414;11.478;2024-03-08T15:41:01;8.70;90.20
9179;DHT22;71287;48.414;11.478;2024-03-08T15:43:32;8.70;90.20
9179;DHT22;71287;48.414;11.478;2024-03-08T15:46:00;8.70;89.80
9179;DHT22;71287;48.414;11.478;2024-03-08T15:48:30;8.60;89.50
9179;DHT22;71287;48.414;11.478;2024-03-08T15:50:57;8.60;89.50